createdAt,value
2018-03-24T00:00:07.449Z,11.80
2018-03-24T00:02:35.936Z,10.35
2018-03-24T00:05:08.105Z,10.40
2018-03-24T00:07:37.839Z,11.12
2018-03-24T00:10:07.085Z,10.30
2018-03-24T00:12:35.431Z,11.68
2018-03-24T00:15:06.684Z,11.95
2018-03-24T00:17:35.126Z,14.77
2018-03-24T00:20:06.593Z,13.62
2018-03-24T00:22:34.931Z,12.88
2018-03-24T00:25:06.558Z,14.25
2018-03-24T00:27:34.848Z,12.33
2018-03-24T00:30:06.322Z,13.62
2018-03-24T00:32:35.116Z,14.87
2018-03-24T00:35:09.046Z,13.30
2018-03-24T00:37:37.371Z,13.80
2018-03-24T00:40:07.409Z,15.57
2018-03-24T00:42:36.061Z,15.05
2018-03-24T00:45:07.418Z,15.35
2018-03-24T00:47:35.729Z,14.20
2018-03-24T00:50:07.829Z,16.55
2018-03-24T00:52:36.128Z,16.23
2018-03-24T00:55:06.205Z,15.57
2018-03-24T00:57:34.502Z,17.35
2018-03-24T01:00:05.858Z,17.17
2018-03-24T01:02:34.234Z,17.60
2018-03-24T01:05:05.568Z,18.15
2018-03-24T01:07:34.043Z,18.98
2018-03-24T01:10:05.963Z,17.00
2018-03-24T01:12:34.242Z,18.12
2018-03-24T01:15:06.804Z,18.73
2018-03-24T01:17:35.082Z,21.12
2018-03-24T01:20:05.535Z,20.23
2018-03-24T01:22:33.825Z,22.50
2018-03-24T01:25:07.089Z,22.40
2018-03-24T01:27:35.399Z,22.10
2018-03-24T01:30:07.220Z,21.67
2018-03-24T01:32:35.637Z,20.98
2018-03-24T01:35:05.678Z,21.12
2018-03-24T01:37:35.332Z,21.85
2018-03-24T01:40:07.063Z,21.62
2018-03-24T01:42:35.366Z,23.48
2018-03-24T01:45:06.937Z,21.65
2018-03-24T01:47:35.452Z,22.58
2018-03-24T01:50:07.506Z,22.62
2018-03-24T01:52:35.864Z,24.60
2018-03-24T01:55:05.882Z,25.02
2018-03-24T01:57:34.192Z,23.10
2018-03-24T02:00:08.240Z,24.45
2018-03-24T02:02:36.532Z,25.35
2018-03-24T02:05:05.958Z,26.35
2018-03-24T02:07:34.253Z,22.98
2018-03-24T02:10:08.704Z,23.02
2018-03-24T02:12:37.149Z,24.58
2018-03-24T02:15:06.145Z,23.73
2018-03-24T02:17:34.463Z,21.80
2018-03-24T02:20:06.476Z,26.40
2018-03-24T02:22:34.766Z,28.30
2018-03-24T02:25:15.724Z,24.23
2018-03-24T02:27:44.691Z,22.75
2018-03-24T02:30:12.977Z,25.02
2018-03-24T02:32:41.282Z,22.92
2018-03-24T02:35:09.650Z,23.95
2018-03-24T02:37:37.931Z,24.02
2018-03-24T02:40:06.232Z,23.87
2018-03-24T02:42:34.518Z,24.75
2018-03-24T02:45:05.876Z,24.05
2018-03-24T02:47:34.165Z,24.55
2018-03-24T02:50:08.333Z,25.42
2018-03-24T02:52:36.609Z,23.10
2018-03-24T02:55:06.081Z,24.65
2018-03-24T02:57:34.424Z,24.37
2018-03-24T03:00:06.710Z,23.77
2018-03-24T03:02:35.011Z,24.48
2018-03-24T03:05:06.864Z,22.05
2018-03-24T03:07:35.173Z,24.77
2018-03-24T03:10:06.381Z,22.98
2018-03-24T03:12:34.700Z,22.13
2018-03-24T03:15:05.640Z,23.65
2018-03-24T03:17:33.949Z,27.83
2018-03-24T03:20:05.464Z,24.15
2018-03-24T03:22:33.761Z,26.15
2018-03-24T03:25:05.200Z,24.73
2018-03-24T03:27:33.520Z,23.55
2018-03-24T03:30:04.978Z,25.62
2018-03-24T03:32:33.279Z,22.15
2018-03-24T03:35:07.926Z,24.25
2018-03-24T03:37:36.225Z,25.17
2018-03-24T03:40:06.849Z,25.15
2018-03-24T03:42:35.242Z,24.92
2018-03-24T03:45:06.767Z,23.65
2018-03-24T03:47:35.437Z,26.48
2018-03-24T03:50:07.445Z,23.75
2018-03-24T03:52:35.732Z,24.90
2018-03-24T03:55:05.646Z,23.20
2018-03-24T03:57:34.317Z,26.85
2018-03-24T04:00:06.481Z,25.02
2018-03-24T04:02:35.089Z,25.23
2018-03-24T04:05:07.094Z,23.40
2018-03-24T04:07:35.407Z,24.60
2018-03-24T04:10:06.749Z,25.73
2018-03-24T04:12:35.021Z,23.00
2018-03-24T04:15:05.740Z,24.20
2018-03-24T04:17:34.074Z,25.55
2018-03-24T04:20:09.253Z,26.70
2018-03-24T04:22:37.613Z,24.85
2018-03-24T04:25:05.913Z,25.02
2018-03-24T04:27:34.370Z,25.37
2018-03-24T04:30:05.762Z,29.02
2018-03-24T04:32:34.285Z,25.67
2018-03-24T04:35:05.753Z,27.08
2018-03-24T04:37:34.032Z,26.10
2018-03-24T04:40:07.261Z,23.90
2018-03-24T04:42:35.552Z,27.58
2018-03-24T04:45:07.785Z,26.20
2018-03-24T04:47:36.321Z,27.42
2018-03-24T04:50:06.069Z,29.27
2018-03-24T04:52:34.752Z,27.70
2018-03-24T04:55:05.929Z,27.33
2018-03-24T04:57:34.206Z,25.65
2018-03-24T05:00:09.767Z,27.37
2018-03-24T05:02:38.076Z,27.08
2018-03-24T05:05:06.375Z,29.37
2018-03-24T05:07:34.687Z,26.33
2018-03-24T05:10:06.129Z,27.42
2018-03-24T05:12:34.430Z,26.73
2018-03-24T05:15:05.936Z,29.23
2018-03-24T05:17:34.247Z,26.55
2018-03-24T05:20:06.537Z,29.60
2018-03-24T05:22:34.845Z,31.33
2018-03-24T05:25:05.792Z,31.58
2018-03-24T05:27:34.534Z,29.33
2018-03-24T05:30:06.492Z,30.00
2018-03-24T05:32:34.945Z,29.90
2018-03-24T05:35:07.043Z,28.05
2018-03-24T05:37:35.327Z,28.55
2018-03-24T05:40:08.057Z,26.60
2018-03-24T05:42:36.375Z,29.80
2018-03-24T05:45:06.330Z,29.02
2018-03-24T05:47:35.657Z,28.38
2018-03-24T05:50:07.590Z,29.23
2018-03-24T05:52:35.886Z,30.15
2018-03-24T05:55:06.031Z,29.30
2018-03-24T05:57:34.351Z,26.62
2018-03-24T06:00:05.657Z,27.83
2018-03-24T06:02:33.945Z,27.55
2018-03-24T06:05:09.110Z,29.77
2018-03-24T06:07:37.402Z,28.62
2018-03-24T06:10:06.037Z,26.70
2018-03-24T06:12:34.328Z,23.83
2018-03-24T06:15:09.706Z,26.55
2018-03-24T06:17:38.002Z,25.48
2018-03-24T06:20:06.314Z,26.30
2018-03-24T06:22:34.881Z,23.80
2018-03-24T06:25:07.016Z,26.13
2018-03-24T06:27:35.332Z,24.40
2018-03-24T06:30:10.069Z,22.47
2018-03-24T06:32:38.363Z,22.63
2018-03-24T06:35:06.696Z,21.73
2018-03-24T06:37:34.967Z,22.80
2018-03-24T06:40:06.809Z,23.97
2018-03-24T06:42:35.085Z,27.67
2018-03-24T06:45:07.182Z,25.13
2018-03-24T06:47:35.477Z,23.73
2018-03-24T06:50:06.848Z,22.27
2018-03-24T06:52:35.279Z,24.87
2018-03-24T06:55:05.950Z,23.80
2018-03-24T06:57:34.267Z,25.90
2018-03-24T07:00:05.725Z,25.43
2018-03-24T07:02:34.021Z,23.67
2018-03-24T07:05:05.673Z,25.07
2018-03-24T07:07:33.957Z,27.03
2018-03-24T07:10:08.946Z,25.07
2018-03-24T07:12:37.233Z,26.40
2018-03-24T07:15:06.873Z,27.63
2018-03-24T07:17:35.172Z,26.50
2018-03-24T07:20:06.784Z,26.80
2018-03-24T07:22:35.265Z,25.37
2018-03-24T07:25:07.618Z,24.37
2018-03-24T07:27:36.078Z,27.67
2018-03-24T07:30:06.053Z,27.07
2018-03-24T07:32:34.320Z,26.70
2018-03-24T07:35:09.385Z,28.73
2018-03-24T07:37:37.670Z,25.77
2018-03-24T07:40:05.969Z,25.53
2018-03-24T07:42:34.244Z,27.20
2018-03-24T07:45:06.225Z,27.17
2018-03-24T07:47:34.542Z,26.30
2018-03-24T07:50:07.627Z,24.77
2018-03-24T07:52:35.886Z,27.67
2018-03-24T07:55:07.229Z,24.17
2018-03-24T07:57:35.513Z,24.17
2018-03-24T08:00:07.006Z,23.93
2018-03-24T08:02:35.699Z,22.57
2018-03-24T08:05:07.417Z,22.80
2018-03-24T08:07:35.697Z,24.00
2018-03-24T08:10:07.872Z,24.00
2018-03-24T08:12:36.164Z,22.83
2018-03-24T08:15:07.438Z,23.50
2018-03-24T08:17:36.068Z,23.27
2018-03-24T08:20:05.998Z,22.07
2018-03-24T08:22:34.824Z,20.83
2018-03-24T08:25:05.992Z,21.27
2018-03-24T08:27:34.317Z,20.60
2018-03-24T08:30:05.825Z,29.23
2018-03-24T08:32:34.122Z,32.43
2018-03-24T08:35:06.446Z,22.03
2018-03-24T08:37:34.771Z,21.10
2018-03-24T08:40:06.146Z,20.57
2018-03-24T08:42:34.467Z,20.57
2018-03-24T08:45:06.172Z,19.97
2018-03-24T08:47:35.484Z,20.77
2018-03-24T08:50:07.764Z,20.43
2018-03-24T08:52:36.025Z,22.20
2018-03-24T08:55:06.138Z,18.67
2018-03-24T08:57:34.981Z,20.10
2018-03-24T09:00:06.328Z,20.13
2018-03-24T09:02:34.605Z,20.03
2018-03-24T09:05:06.802Z,21.30
2018-03-24T09:07:35.249Z,20.80
2018-03-24T09:10:07.212Z,21.07
2018-03-24T09:12:35.739Z,21.60
2018-03-24T09:15:07.708Z,23.67
2018-03-24T09:17:35.917Z,20.43
2018-03-24T09:20:07.574Z,21.20
2018-03-24T09:22:36.006Z,20.03
2018-03-24T09:25:06.132Z,20.30
2018-03-24T09:27:34.860Z,19.63
2018-03-24T09:30:06.981Z,21.20
2018-03-24T09:32:35.269Z,20.40
2018-03-24T09:35:06.816Z,21.30
2018-03-24T09:37:35.092Z,19.80
2018-03-24T09:40:07.319Z,19.57
2018-03-24T09:42:35.713Z,17.83
2018-03-24T09:45:08.014Z,18.20
2018-03-24T09:47:36.295Z,18.00
2018-03-24T09:50:06.626Z,18.53
2018-03-24T09:52:34.921Z,18.73
2018-03-24T09:55:06.875Z,17.80
2018-03-24T09:57:35.205Z,18.73
2018-03-24T10:00:07.305Z,15.27
2018-03-24T10:02:35.597Z,16.60
2018-03-24T10:05:06.900Z,16.90
2018-03-24T10:07:35.345Z,16.97
2018-03-24T10:10:07.410Z,16.57
2018-03-24T10:12:35.724Z,15.53
2018-03-24T10:15:07.793Z,15.37
2018-03-24T10:17:36.245Z,16.13
2018-03-24T10:20:09.289Z,15.83
2018-03-24T10:22:49.381Z,14.83
2018-03-24T10:25:17.728Z,14.13
2018-03-24T10:27:46.034Z,14.23
2018-03-24T10:30:14.480Z,13.07
2018-03-24T10:32:42.772Z,12.17
2018-03-24T10:35:11.055Z,12.63
2018-03-24T10:37:44.868Z,11.33
2018-03-24T10:40:13.241Z,11.37
2018-03-24T10:45:42.571Z,10.57
2018-03-24T10:48:10.865Z,9.63
2018-03-24T10:50:39.162Z,10.60
2018-03-24T10:53:07.821Z,14.90
2018-03-24T10:55:36.111Z,14.00
2018-03-24T10:58:04.407Z,10.60
2018-03-24T11:00:32.891Z,12.30
2018-03-24T11:03:01.449Z,12.20
2018-03-24T11:05:29.743Z,11.23
2018-03-24T11:07:58.016Z,12.30
2018-03-24T11:10:26.361Z,10.87
2018-03-24T11:12:54.649Z,11.40
2018-03-24T11:15:22.946Z,12.23
2018-03-24T11:17:51.289Z,11.73
2018-03-24T11:20:19.556Z,12.17
2018-03-24T11:22:48.974Z,12.07
2018-03-24T11:25:17.277Z,13.03
2018-03-24T11:27:45.810Z,13.17
2018-03-24T11:30:15.289Z,12.80
2018-03-24T11:32:43.584Z,11.63
2018-03-24T11:35:11.929Z,11.73
2018-03-24T11:37:40.230Z,13.07
2018-03-24T11:40:08.754Z,12.00
2018-03-24T11:42:37.029Z,12.70
2018-03-24T11:45:06.522Z,11.23
2018-03-24T11:47:34.809Z,11.53
2018-03-24T11:50:06.968Z,11.83
2018-03-24T11:52:35.254Z,11.23
2018-03-24T11:55:07.154Z,9.60
2018-03-24T11:57:35.451Z,9.93
2018-03-24T12:00:09.592Z,10.60
2018-03-24T12:02:38.358Z,11.20
2018-03-24T12:05:06.619Z,11.93
2018-03-24T12:07:34.913Z,11.17
2018-03-24T12:10:06.257Z,11.63
2018-03-24T12:12:34.566Z,10.97
2018-03-24T12:15:06.330Z,11.03
2018-03-24T12:17:34.633Z,11.70
2018-03-24T12:20:09.710Z,11.20
2018-03-24T12:22:38.029Z,11.57
2018-03-24T12:25:06.490Z,11.27
2018-03-24T12:27:34.780Z,10.43
2018-03-24T12:30:06.162Z,11.23
2018-03-24T12:32:34.641Z,10.33
2018-03-24T12:35:06.119Z,10.80
2018-03-24T12:37:34.399Z,11.47
2018-03-24T12:40:05.714Z,11.20
2018-03-24T12:42:34.006Z,10.33
2018-03-24T12:45:08.876Z,11.37
2018-03-24T12:47:37.146Z,11.50
2018-03-24T12:50:07.071Z,11.67
2018-03-24T12:52:35.446Z,10.27
2018-03-24T12:55:07.030Z,9.63
2018-03-24T12:57:35.298Z,9.47
2018-03-24T13:00:07.440Z,10.23
2018-03-24T13:02:35.715Z,10.00
2018-03-24T13:05:07.916Z,11.23
2018-03-24T13:07:36.200Z,10.53
2018-03-24T13:10:08.220Z,10.13
2018-03-24T13:12:36.476Z,9.73
2018-03-24T13:15:07.303Z,10.17
2018-03-24T13:17:35.626Z,10.30
2018-03-24T13:20:07.363Z,9.57
2018-03-24T13:22:35.656Z,10.47
2018-03-24T13:25:07.942Z,9.00
2018-03-24T13:27:37.738Z,8.90
2018-03-24T13:30:07.029Z,9.60
2018-03-24T13:32:35.313Z,9.50
2018-03-24T13:35:06.872Z,9.50
2018-03-24T13:37:35.151Z,10.17
2018-03-24T13:40:06.350Z,9.27
2018-03-24T13:42:34.845Z,9.77
2018-03-24T13:45:06.219Z,9.80
2018-03-24T13:47:34.776Z,10.10
2018-03-24T13:50:06.173Z,9.83
2018-03-24T13:52:34.557Z,10.20
2018-03-24T13:55:08.477Z,9.47
2018-03-24T13:57:36.806Z,11.13
2018-03-24T14:00:07.339Z,9.67
2018-03-24T14:02:35.861Z,10.37
2018-03-24T14:05:07.849Z,9.97
2018-03-24T14:07:36.348Z,9.90
2018-03-24T14:10:06.735Z,10.23
2018-03-24T14:12:35.004Z,10.03
2018-03-24T14:15:06.572Z,10.50
2018-03-24T14:17:34.882Z,10.57
2018-03-24T14:20:06.351Z,10.03
2018-03-24T14:22:35.457Z,10.50
2018-03-24T14:25:06.712Z,9.70
2018-03-24T14:27:35.134Z,9.73
2018-03-24T14:30:06.383Z,10.03
2018-03-24T14:32:34.660Z,11.57
2018-03-24T14:35:06.226Z,8.93
2018-03-24T14:37:34.487Z,8.93
2018-03-24T14:40:05.861Z,9.70
2018-03-24T14:42:34.140Z,9.47
2018-03-24T14:45:08.908Z,9.60
2018-03-24T14:47:41.587Z,8.40
2018-03-24T14:50:09.890Z,8.67
2018-03-24T14:52:38.184Z,8.40
2018-03-24T14:55:06.488Z,8.67
2018-03-24T14:57:34.958Z,9.10
2018-03-24T15:00:06.710Z,9.47
2018-03-24T15:02:34.994Z,8.43
2018-03-24T15:05:07.093Z,8.40
2018-03-24T15:07:35.405Z,9.00
2018-03-24T15:10:06.617Z,8.30
2018-03-24T15:12:35.674Z,8.80
2018-03-24T15:15:07.094Z,8.93
2018-03-24T15:17:35.392Z,9.13
2018-03-24T15:20:08.256Z,9.03
2018-03-24T15:22:36.540Z,8.40
2018-03-24T15:25:06.542Z,7.60
2018-03-24T15:27:34.832Z,8.53
2018-03-24T15:30:14.855Z,9.83
2018-03-24T15:32:52.069Z,9.07
2018-03-24T15:35:33.852Z,8.57
2018-03-24T15:38:02.141Z,8.77
2018-03-24T15:40:30.634Z,9.70
2018-03-24T15:42:58.929Z,9.43
2018-03-24T15:45:27.392Z,10.53
2018-03-24T15:47:55.710Z,10.10
2018-03-24T15:50:24.192Z,9.50
2018-03-24T15:52:52.849Z,11.67
2018-03-24T15:55:21.127Z,11.60
2018-03-24T15:57:49.971Z,10.00
2018-03-24T16:00:18.250Z,9.77
2018-03-24T16:02:46.596Z,9.47
2018-03-24T16:05:14.861Z,9.43
2018-03-24T16:07:43.241Z,9.93
2018-03-24T16:10:11.599Z,11.93
2018-03-24T16:12:40.177Z,9.77
2018-03-24T16:15:09.011Z,9.20
2018-03-24T16:17:37.870Z,11.63
2018-03-24T16:20:06.605Z,11.50
2018-03-24T16:22:35.194Z,10.90
2018-03-24T16:25:07.138Z,10.77
2018-03-24T16:27:35.987Z,10.70
2018-03-24T16:30:07.572Z,9.63
2018-03-24T16:32:35.839Z,10.60
2018-03-24T16:35:07.272Z,10.43
2018-03-24T16:37:35.547Z,10.00
2018-03-24T16:40:05.726Z,10.23
2018-03-24T16:42:34.212Z,10.50
2018-03-24T16:45:06.191Z,9.20
2018-03-24T16:47:34.449Z,10.73
2018-03-24T16:50:06.308Z,10.17
2018-03-24T16:52:34.663Z,10.47
2018-03-24T16:55:06.368Z,9.40
2018-03-24T16:57:34.652Z,11.17
2018-03-24T17:00:05.486Z,10.10
2018-03-24T17:02:33.761Z,11.13
2018-03-24T17:05:07.811Z,10.50
2018-03-24T17:07:36.095Z,9.87
2018-03-24T17:10:06.026Z,9.53
2018-03-24T17:12:34.512Z,13.87
2018-03-24T17:15:06.741Z,11.93
2018-03-24T17:17:35.241Z,9.60
2018-03-24T17:20:07.385Z,9.93
2018-03-24T17:22:35.692Z,9.67
2018-03-24T17:25:07.141Z,11.07
2018-03-24T17:27:35.736Z,9.37
2018-03-24T17:30:07.802Z,11.20
2018-03-24T17:32:36.107Z,11.10
2018-03-24T17:35:05.966Z,12.70
2018-03-24T17:37:34.274Z,13.73
2018-03-24T17:40:05.893Z,10.80
2018-03-24T17:42:34.160Z,10.57
2018-03-24T17:45:05.617Z,10.63
2018-03-24T17:47:33.917Z,10.93
2018-03-24T17:50:08.984Z,11.63
2018-03-24T17:52:37.581Z,9.93
2018-03-24T17:55:05.886Z,11.20
2018-03-24T17:57:34.190Z,10.87
2018-03-24T18:00:05.997Z,10.47
2018-03-24T18:02:34.401Z,10.37
2018-03-24T18:05:08.349Z,10.87
2018-03-24T18:07:36.631Z,9.97
2018-03-24T18:10:05.967Z,10.27
2018-03-24T18:12:34.716Z,10.77
2018-03-24T18:15:06.815Z,10.10
2018-03-24T18:17:35.089Z,10.43
2018-03-24T18:20:05.859Z,11.03
2018-03-24T18:22:34.162Z,10.67
2018-03-24T18:25:05.640Z,11.70
2018-03-24T18:27:34.089Z,11.77
2018-03-24T18:30:08.021Z,11.70
2018-03-24T18:32:36.309Z,11.53
2018-03-24T18:35:06.052Z,11.37
2018-03-24T18:37:34.349Z,11.17
2018-03-24T18:40:05.817Z,12.30
2018-03-24T18:42:34.098Z,12.67
2018-03-24T18:45:06.926Z,12.03
2018-03-24T18:47:35.232Z,13.83
2018-03-24T18:50:06.713Z,11.97
2018-03-24T18:52:35.010Z,13.10
2018-03-24T18:55:05.924Z,13.57
2018-03-24T18:57:34.213Z,13.93
2018-03-24T19:00:06.174Z,13.90
2018-03-24T19:02:34.507Z,14.67
2018-03-24T19:05:06.080Z,16.07
2018-03-24T19:07:34.558Z,16.37
2018-03-24T19:10:06.664Z,15.00
2018-03-24T19:12:36.252Z,18.07
2018-03-24T19:15:06.168Z,17.77
2018-03-24T19:17:34.561Z,18.40
2018-03-24T19:20:06.011Z,15.60
2018-03-24T19:22:34.269Z,17.77
2018-03-24T19:25:06.197Z,18.30
2018-03-24T19:27:34.419Z,18.10
2018-03-24T19:30:05.812Z,15.97
2018-03-24T19:32:34.121Z,15.97
2018-03-24T19:35:08.054Z,18.63
2018-03-24T19:37:36.444Z,14.70
2018-03-24T19:40:08.748Z,15.47
2018-03-24T19:42:37.075Z,13.60
2018-03-24T19:45:06.117Z,14.60
2018-03-24T19:47:34.402Z,15.60
2018-03-24T19:50:09.610Z,13.13
2018-03-24T19:52:38.067Z,13.97
2018-03-24T19:55:06.418Z,15.67
2018-03-24T19:57:34.908Z,15.73
2018-03-24T20:00:06.797Z,14.27
2018-03-24T20:02:35.279Z,15.00
2018-03-24T20:05:07.687Z,16.70
2018-03-24T20:07:35.950Z,13.83
2018-03-24T20:10:06.055Z,14.73
2018-03-24T20:12:34.514Z,14.87
2018-03-24T20:15:06.672Z,16.20
2018-03-24T20:17:34.983Z,13.93
2018-03-24T20:20:06.354Z,14.33
2018-03-24T20:22:34.680Z,14.53
2018-03-24T20:25:08.660Z,16.70
2018-03-24T20:27:36.973Z,15.87
2018-03-24T20:30:06.676Z,16.00
2018-03-24T20:32:35.196Z,16.63
2018-03-24T20:35:05.945Z,15.30
2018-03-24T20:37:34.284Z,18.13
2018-03-24T20:40:06.659Z,14.07
2018-03-24T20:42:34.978Z,18.50
2018-03-24T20:45:07.094Z,15.77
2018-03-24T20:47:35.415Z,16.97
2018-03-24T20:50:07.012Z,18.73
2018-03-24T20:52:35.641Z,15.37
2018-03-24T20:55:07.502Z,16.70
2018-03-24T20:57:35.817Z,15.40
2018-03-24T21:00:07.142Z,18.43
2018-03-24T21:02:35.437Z,15.83
2018-03-24T21:05:06.667Z,17.67
2018-03-24T21:07:34.951Z,16.47
2018-03-24T21:10:06.184Z,15.13
2018-03-24T21:12:34.656Z,15.73
2018-03-24T21:15:06.692Z,16.47
2018-03-24T21:17:34.988Z,16.33
2018-03-24T21:20:06.186Z,14.93
2018-03-24T21:22:34.496Z,17.20
2018-03-24T21:25:09.602Z,17.20
2018-03-24T21:27:37.882Z,14.87
2018-03-24T21:30:06.161Z,18.00
2018-03-24T21:32:35.010Z,16.53
2018-03-24T21:35:06.056Z,17.07
2018-03-24T21:37:34.345Z,17.23
2018-03-24T21:40:05.891Z,16.77
2018-03-24T21:42:34.172Z,15.70
2018-03-24T21:45:05.482Z,17.17
2018-03-24T21:47:33.839Z,17.17
2018-03-24T21:50:05.829Z,17.03
2018-03-24T21:52:34.452Z,14.73
2018-03-24T21:55:05.851Z,14.33
2018-03-24T21:57:34.159Z,14.67
2018-03-24T22:00:05.526Z,14.27
2018-03-24T22:02:33.805Z,16.07
2018-03-24T22:05:08.648Z,16.93
2018-03-24T22:07:37.551Z,14.60
2018-03-24T22:10:06.351Z,15.67
2018-03-24T22:12:34.631Z,15.00
2018-03-24T22:15:06.100Z,15.77
2018-03-24T22:17:35.160Z,17.33
2018-03-24T22:20:06.226Z,15.97
2018-03-24T22:22:34.825Z,16.13
2018-03-24T22:25:06.429Z,18.50
2018-03-24T22:27:35.348Z,17.00
2018-03-24T22:30:07.246Z,19.53
2018-03-24T22:32:35.716Z,18.93
2018-03-24T22:35:07.355Z,19.50
2018-03-24T22:37:36.495Z,17.67
2018-03-24T22:40:06.393Z,17.30
2018-03-24T22:42:34.701Z,19.53
2018-03-24T22:45:06.385Z,20.93
2018-03-24T22:47:34.722Z,22.17
2018-03-24T22:50:08.738Z,23.20
2018-03-24T22:52:37.074Z,26.00
2018-03-24T22:55:07.078Z,24.83
2018-03-24T22:57:35.409Z,21.37
2018-03-24T23:00:07.187Z,22.67
2018-03-24T23:02:35.482Z,21.90
2018-03-24T23:05:07.074Z,19.73
2018-03-24T23:07:35.368Z,19.93
2018-03-24T23:10:07.289Z,17.27
2018-03-24T23:12:35.600Z,19.90
2018-03-24T23:15:07.199Z,18.80
2018-03-24T23:17:35.487Z,17.92
2018-03-24T23:20:05.657Z,17.80
2018-03-24T23:22:33.938Z,17.42
2018-03-24T23:25:05.472Z,18.80
2018-03-24T23:27:33.771Z,17.98
2018-03-24T23:30:05.118Z,20.70
2018-03-24T23:32:33.522Z,19.90
2018-03-24T23:35:05.008Z,22.67
2018-03-24T23:37:33.453Z,18.77
2018-03-24T23:40:05.172Z,20.08
2018-03-24T23:42:33.852Z,18.80
2018-03-24T23:45:05.457Z,19.60
2018-03-24T23:47:33.768Z,18.08
2018-03-24T23:50:06.337Z,20.65
2018-03-24T23:52:34.676Z,21.00
2018-03-24T23:55:06.003Z,18.52
2018-03-24T23:57:34.288Z,19.70
